Time;durP1;ratioP1;P1;durP2;ratioP2;P2;SDS_P1;SDS_P2;PMS_P1;PMS_P2;Temp;Humidity;BMP_temperature;BMP_pressure;BME280_temperature;BME280_humidity;BME280_pressure;Samples;Min_cycle;Max_cycle;Signal;HPM_P1;HPM_P2
2021/03/25 00:01:36;0.00;0.00;0.62;0.00;0.00;0.62;10.43;6.70;;;25.00;23.90;;;;;;2237700;62;20392;-63
2021/03/25 00:04:22;0.00;0.00;0.62;0.00;0.00;0.62;11.07;5.97;;;24.90;23.80;;;;;;2237259;62;20394;-62
2021/03/25 00:07:06;0.00;0.00;0.62;0.00;0.00;0.62;9.43;6.60;;;24.90;23.80;;;;;;2238252;62;20436;-63
2021/03/25 00:09:51;0.00;0.00;0.62;0.00;0.00;0.62;9.13;7.40;;;24.90;23.70;;;;;;2237502;62;20423;-62
2021/03/25 00:12:35;0.00;0.00;0.62;0.00;0.00;0.62;8.50;6.73;;;24.90;23.70;;;;;;2237337;62;20422;-62
2021/03/25 00:15:21;0.00;0.00;0.62;0.00;0.00;0.62;9.50;7.73;;;24.90;23.70;;;;;;2238078;62;20384;-63
2021/03/25 00:18:07;0.00;0.00;0.62;0.00;0.00;0.62;8.10;7.20;;;24.90;23.70;;;;;;2237683;62;20597;-62
2021/03/25 00:20:52;0.00;0.00;0.62;0.00;0.00;0.62;8.13;7.33;;;24.80;23.60;;;;;;2237538;62;20409;-63
2021/03/25 00:23:37;0.00;0.00;0.62;0.00;0.00;0.62;10.60;7.83;;;24.80;23.60;;;;;;2237902;62;20592;-63
2021/03/25 00:26:22;0.00;0.00;0.62;0.00;0.00;0.62;10.23;7.07;;;24.90;23.70;;;;;;2237477;62;20400;-62
2021/03/25 00:29:08;0.00;0.00;0.62;0.00;0.00;0.62;10.13;7.87;;;24.80;23.60;;;;;;2238058;62;20800;-62
2021/03/25 00:31:53;0.00;0.00;0.62;0.00;0.00;0.62;8.97;7.87;;;24.80;23.60;;;;;;2238033;62;20513;-63
2021/03/25 00:34:38;0.00;0.00;0.62;0.00;0.00;0.62;9.97;8.30;;;24.80;23.60;;;;;;2237306;62;20384;-62
2021/03/25 00:37:22;0.00;0.00;0.62;0.00;0.00;0.62;8.83;7.40;;;24.80;23.60;;;;;;2238135;62;20427;-62
2021/03/25 00:40:09;0.00;0.00;0.62;0.00;0.00;0.62;10.00;7.43;;;24.70;23.50;;;;;;2237797;62;20544;-62
2021/03/25 00:42:54;0.00;0.00;0.62;0.00;0.00;0.62;9.63;7.60;;;24.70;23.50;;;;;;2237331;62;20363;-62
2021/03/25 00:45:42;0.00;0.00;0.62;0.00;0.00;0.62;13.30;9.10;;;24.70;23.50;;;;;;2238105;62;20563;-62
2021/03/25 00:48:31;0.00;0.00;0.62;0.00;0.00;0.62;11.27;9.37;;;24.70;23.50;;;;;;2237494;62;20444;-63
2021/03/25 00:51:16;0.00;0.00;0.62;0.00;0.00;0.62;9.80;8.73;;;24.70;23.60;;;;;;2237329;62;20738;-63
2021/03/25 00:54:01;0.00;0.00;0.62;0.00;0.00;0.62;9.53;7.97;;;24.60;23.50;;;;;;2237811;62;20516;-63
2021/03/25 00:56:45;0.00;0.00;0.62;0.00;0.00;0.62;10.23;9.13;;;24.60;23.50;;;;;;2237393;62;20401;-62
2021/03/25 00:59:30;0.00;0.00;0.62;0.00;0.00;0.62;10.30;8.30;;;24.60;23.50;;;;;;2237953;62;20366;-64
2021/03/25 01:02:15;0.00;0.00;0.62;0.00;0.00;0.62;8.60;7.67;;;24.60;23.50;;;;;;2237456;62;20360;-62
2021/03/25 01:05:00;0.00;0.00;0.62;0.00;0.00;0.62;10.53;9.33;;;24.60;23.50;;;;;;2237288;62;20765;-62
2021/03/25 01:07:44;0.00;0.00;0.62;0.00;0.00;0.62;11.90;8.47;;;24.60;23.50;;;;;;2237891;62;20399;-62
2021/03/25 01:10:34;0.00;0.00;0.62;0.00;0.00;0.62;10.17;8.50;;;24.50;23.50;;;;;;2237441;62;20364;-62
2021/03/25 01:13:25;0.00;0.00;0.62;0.00;0.00;0.62;11.40;9.50;;;24.50;23.40;;;;;;2236948;62;20398;-63
2021/03/25 01:16:16;0.00;0.00;0.62;0.00;0.00;0.62;10.80;8.50;;;24.50;23.50;;;;;;2238060;62;20449;-62
2021/03/25 01:19:03;0.00;0.00;0.62;0.00;0.00;0.62;10.67;8.83;;;24.50;23.50;;;;;;2237334;62;20367;-62
2021/03/25 01:21:49;0.00;0.00;0.62;0.00;0.00;0.62;11.53;9.73;;;24.40;23.40;;;;;;2237498;62;20360;-63
2021/03/25 01:24:34;0.00;0.00;0.62;0.00;0.00;0.62;14.70;10.30;;;24.50;23.40;;;;;;2236846;62;20427;-62
2021/03/25 01:27:18;0.00;0.00;0.62;0.00;0.00;0.62;11.87;9.23;;;24.40;23.40;;;;;;2237342;62;20704;-62
2021/03/25 01:30:05;0.00;0.00;0.62;0.00;0.00;0.62;11.67;9.53;;;24.40;23.40;;;;;;2237437;62;20658;-62
2021/03/25 01:32:50;0.00;0.00;0.62;0.00;0.00;0.62;10.93;9.00;;;24.40;23.40;;;;;;2237317;62;20387;-62
2021/03/25 01:35:38;0.00;0.00;0.62;0.00;0.00;0.62;11.43;8.70;;;24.30;23.30;;;;;;2237591;62;20361;-62
2021/03/25 01:38:24;0.00;0.00;0.62;0.00;0.00;0.62;10.00;9.00;;;24.30;23.30;;;;;;2237938;62;20403;-62
2021/03/25 01:41:10;0.00;0.00;0.62;0.00;0.00;0.62;9.70;8.70;;;24.30;23.40;;;;;;2237281;62;20372;-62
2021/03/25 01:43:55;0.00;0.00;0.62;0.00;0.00;0.62;10.63;8.83;;;24.30;23.40;;;;;;2237253;62;20443;-62
2021/03/25 01:46:40;0.00;0.00;0.62;0.00;0.00;0.62;12.20;9.57;;;24.30;23.40;;;;;;2237150;62;20591;-61
2021/03/25 01:49:26;0.00;0.00;0.62;0.00;0.00;0.62;11.67;9.67;;;24.20;23.30;;;;;;2237309;62;20634;-62
2021/03/25 01:52:45;0.00;0.00;0.62;0.00;0.00;0.62;10.83;9.30;;;24.20;23.30;;;;;;2237403;62;20428;-62
2021/03/25 01:55:44;0.00;0.00;0.62;0.00;0.00;0.62;12.60;10.03;;;24.20;23.30;;;;;;2236648;62;20780;-62
2021/03/25 01:58:55;0.00;0.00;0.62;0.00;0.00;0.62;11.20;9.90;;;24.20;23.40;;;;;;2237153;62;20420;-62
2021/03/25 02:01:44;0.00;0.00;0.62;0.00;0.00;0.62;11.17;9.87;;;24.20;23.40;;;;;;2237426;62;20405;-62
2021/03/25 02:04:51;0.00;0.00;0.62;0.00;0.00;0.62;12.20;9.40;;;24.10;23.30;;;;;;2236591;62;20790;-61
2021/03/25 02:07:48;0.00;0.00;0.62;0.00;0.00;0.62;12.77;9.30;;;24.10;23.30;;;;;;2468240;54;20387;-62
2021/03/25 02:10:47;0.00;0.00;0.62;0.00;0.00;0.62;10.83;9.60;;;24.10;23.30;;;;;;2236292;62;20363;-63
2021/03/25 02:13:49;0.00;0.00;0.62;0.00;0.00;0.62;13.47;10.43;;;24.10;23.30;;;;;;2237661;62;20395;-62
2021/03/25 02:16:39;0.00;0.00;0.62;0.00;0.00;0.62;13.77;10.03;;;24.00;23.30;;;;;;2236892;62;20359;-62
2021/03/25 02:20:39;0.00;0.00;0.62;0.00;0.00;0.62;15.93;12.93;;;24.00;23.30;;;;;;2237387;62;20368;-63
2021/03/25 02:24:00;0.00;0.00;0.62;0.00;0.00;0.62;13.93;10.53;;;24.00;23.30;;;;;;2236692;62;20393;-62
2021/03/25 02:26:51;0.00;0.00;0.62;0.00;0.00;0.62;12.20;10.20;;;24.00;23.30;;;;;;2238584;62;20404;-62
2021/03/25 02:29:51;0.00;0.00;0.62;0.00;0.00;0.62;10.50;8.30;;;24.00;23.30;;;;;;2238433;62;20371;-62
2021/03/25 02:32:48;0.00;0.00;0.62;0.00;0.00;0.62;13.83;11.57;;;23.90;23.20;;;;;;2237230;62;20403;-62
2021/03/25 02:35:43;0.00;0.00;0.62;0.00;0.00;0.62;12.60;10.43;;;23.90;23.20;;;;;;2238143;62;20376;-62
2021/03/25 02:38:35;0.00;0.00;0.62;0.00;0.00;0.62;13.20;10.80;;;23.90;23.20;;;;;;2237618;62;20375;-62
2021/03/25 02:41:26;0.00;0.00;0.62;0.00;0.00;0.62;9.67;8.67;;;23.90;23.20;;;;;;2237352;62;20361;-63
2021/03/25 02:44:15;0.00;0.00;0.62;0.00;0.00;0.62;11.90;9.07;;;23.80;23.20;;;;;;2237810;62;20403;-61
2021/03/25 02:47:07;0.00;0.00;0.62;0.00;0.00;0.62;12.20;10.90;;;23.80;23.20;;;;;;2237204;62;20416;-62
2021/03/25 02:50:02;0.00;0.00;0.62;0.00;0.00;0.62;14.77;10.90;;;23.80;23.20;;;;;;2238004;62;20367;-62
2021/03/25 02:52:56;0.00;0.00;0.62;0.00;0.00;0.62;11.67;10.47;;;23.80;23.20;;;;;;2237300;62;20484;-62
2021/03/25 02:55:41;0.00;0.00;0.62;0.00;0.00;0.62;11.27;9.50;;;23.80;23.20;;;;;;2237761;62;20363;-62
2021/03/25 02:58:35;0.00;0.00;0.62;0.00;0.00;0.62;12.60;10.53;;;23.80;23.20;;;;;;2237976;62;20439;-62
2021/03/25 03:01:22;0.00;0.00;0.62;0.00;0.00;0.62;13.50;11.40;;;23.70;23.20;;;;;;2237521;62;20374;-63
2021/03/25 03:04:16;0.00;0.00;0.62;0.00;0.00;0.62;12.30;10.60;;;23.70;23.20;;;;;;2237659;62;20398;-61
2021/03/25 03:07:08;0.00;0.00;0.62;0.00;0.00;0.62;13.20;10.83;;;23.70;23.20;;;;;;2238229;62;20655;-62
2021/03/25 03:10:06;0.00;0.00;0.62;0.00;0.00;0.62;13.20;11.27;;;23.70;23.20;;;;;;2237271;62;20610;-62
2021/03/25 03:13:02;0.00;0.00;0.62;0.00;0.00;0.62;14.80;11.73;;;23.70;23.20;;;;;;2237711;62;20390;-62
2021/03/25 03:15:52;0.00;0.00;0.62;0.00;0.00;0.62;13.90;11.00;;;23.70;23.20;;;;;;2237513;62;20416;-62
2021/03/25 03:18:45;0.00;0.00;0.62;0.00;0.00;0.62;13.17;11.07;;;23.60;23.10;;;;;;2237372;62;20398;-62
2021/03/25 03:21:42;0.00;0.00;0.62;0.00;0.00;0.62;13.40;11.33;;;23.60;23.10;;;;;;2237871;62;20368;-62
2021/03/25 03:24:56;0.00;0.00;0.62;0.00;0.00;0.62;14.27;11.03;;;23.60;23.10;;;;;;2228291;62;20403;-62
2021/03/25 03:27:59;0.00;0.00;0.62;0.00;0.00;0.62;15.33;11.67;;;23.60;23.20;;;;;;2237762;62;20374;-63
2021/03/25 03:30:51;0.00;0.00;0.62;0.00;0.00;0.62;13.37;11.50;;;23.50;23.10;;;;;;2237763;62;20421;-62
2021/03/25 03:33:47;0.00;0.00;0.62;0.00;0.00;0.62;18.37;11.67;;;23.50;23.20;;;;;;2237148;62;20402;-62
2021/03/25 03:36:32;0.00;0.00;0.62;0.00;0.00;0.62;13.17;10.80;;;23.50;23.20;;;;;;2237751;62;20461;-61
2021/03/25 03:39:23;0.00;0.00;0.62;0.00;0.00;0.62;14.20;10.97;;;23.50;23.20;;;;;;2237239;62;20684;-63
2021/03/25 03:42:13;0.00;0.00;0.62;0.00;0.00;0.62;14.40;11.30;;;23.50;23.20;;;;;;2237793;62;20371;-62
2021/03/25 03:45:00;0.00;0.00;0.62;0.00;0.00;0.62;14.80;10.53;;;23.50;23.30;;;;;;2237377;62;20471;-62
2021/03/25 03:47:54;0.00;0.00;0.62;0.00;0.00;0.62;12.33;10.50;;;23.40;23.20;;;;;;2234648;62;20573;-62
2021/03/25 03:50:47;0.00;0.00;0.62;0.00;0.00;0.62;12.93;10.10;;;23.40;23.20;;;;;;2238209;62;20354;-62
2021/03/25 03:53:34;0.00;0.00;0.62;0.00;0.00;0.62;11.80;10.40;;;23.40;23.20;;;;;;2236926;62;20434;-62
2021/03/25 03:56:35;0.00;0.00;0.62;0.00;0.00;0.62;12.77;9.70;;;23.40;23.20;;;;;;2237807;62;20368;-62
2021/03/25 03:59:38;0.00;0.00;0.62;0.00;0.00;0.62;9.80;8.80;;;23.40;23.20;;;;;;2237324;62;20415;-62
2021/03/25 04:02:35;0.00;0.00;0.62;0.00;0.00;0.62;15.30;10.30;;;23.40;23.20;;;;;;2236920;62;20403;-61
2021/03/25 04:05:24;0.00;0.00;0.62;0.00;0.00;0.62;12.00;10.60;;;23.30;23.10;;;;;;2237701;62;20418;-61
2021/03/25 04:08:23;0.00;0.00;0.62;0.00;0.00;0.62;12.20;9.50;;;23.30;23.20;;;;;;2237597;62;20375;-62
2021/03/25 04:11:17;0.00;0.00;0.62;0.00;0.00;0.62;11.03;9.70;;;23.30;23.10;;;;;;2238228;62;20740;-61
2021/03/25 04:14:09;0.00;0.00;0.62;0.00;0.00;0.62;11.90;9.90;;;23.30;23.20;;;;;;2237295;62;20603;-61
2021/03/25 04:17:09;0.00;0.00;0.62;0.00;0.00;0.62;12.70;10.57;;;23.30;23.20;;;;;;2237105;62;20395;-63
2021/03/25 04:20:03;0.00;0.00;0.62;0.00;0.00;0.62;10.77;9.00;;;23.30;23.20;;;;;;2237667;62;20374;-62
2021/03/25 04:23:11;0.00;0.00;0.62;0.00;0.00;0.62;11.40;9.47;;;23.20;23.10;;;;;;2237353;62;20369;-60
2021/03/25 04:26:09;0.00;0.00;0.62;0.00;0.00;0.62;11.83;10.17;;;23.20;23.10;;;;;;2237314;62;20759;-63
2021/03/25 04:29:04;0.00;0.00;0.62;0.00;0.00;0.62;10.53;8.90;;;23.20;23.20;;;;;;2237627;62;20372;-62
2021/03/25 04:31:49;0.00;0.00;0.62;0.00;0.00;0.62;11.30;9.23;;;23.20;23.20;;;;;;2237568;62;20407;-62
2021/03/25 04:34:34;0.00;0.00;0.62;0.00;0.00;0.62;14.47;11.40;;;23.20;23.20;;;;;;2237469;62;20600;-62
2021/03/25 04:37:20;0.00;0.00;0.62;0.00;0.00;0.62;14.87;11.13;;;23.10;23.10;;;;;;2237642;62;20378;-62
2021/03/25 04:40:10;0.00;0.00;0.62;0.00;0.00;0.62;15.30;11.40;;;23.10;23.10;;;;;;2237547;62;20404;-62
2021/03/25 04:42:56;0.00;0.00;0.62;0.00;0.00;0.62;13.03;11.07;;;23.10;23.10;;;;;;2237824;62;20368;-62
2021/03/25 04:45:51;0.00;0.00;0.62;0.00;0.00;0.62;12.67;10.00;;;23.10;23.10;;;;;;2237217;62;20367;-63
2021/03/25 04:48:41;0.00;0.00;0.62;0.00;0.00;0.62;12.97;9.70;;;23.10;23.10;;;;;;2237806;62;20375;-63
2021/03/25 04:51:26;0.00;0.00;0.62;0.00;0.00;0.62;11.20;10.00;;;23.10;23.10;;;;;;2237462;62;20446;-63
2021/03/25 04:54:26;0.00;0.00;0.62;0.00;0.00;0.62;14.37;11.60;;;23.10;23.20;;;;;;2237248;62;20408;-63
2021/03/25 04:57:24;0.00;0.00;0.62;0.00;0.00;0.62;11.10;9.80;;;23.00;23.10;;;;;;2238088;62;20377;-60
2021/03/25 05:00:14;0.00;0.00;0.62;0.00;0.00;0.62;12.67;10.27;;;23.00;23.10;;;;;;2237384;62;20382;-61
2021/03/25 05:03:01;0.00;0.00;0.62;0.00;0.00;0.62;15.20;10.93;;;23.00;23.10;;;;;;2237818;62;20424;-62
2021/03/25 05:05:45;0.00;0.00;0.62;0.00;0.00;0.62;11.80;9.77;;;23.00;23.10;;;;;;2237818;62;20394;-61
2021/03/25 05:08:34;0.00;0.00;0.62;0.00;0.00;0.62;15.97;11.00;;;23.00;23.10;;;;;;2236928;62;20387;-62
2021/03/25 05:11:21;0.00;0.00;0.62;0.00;0.00;0.62;15.23;11.10;;;23.00;23.10;;;;;;2237926;62;20370;-62
2021/03/25 05:14:13;0.00;0.00;0.62;0.00;0.00;0.62;14.17;10.73;;;23.00;23.20;;;;;;2237281;62;20394;-62
2021/03/25 05:17:29;0.00;0.00;0.62;0.00;0.00;0.62;16.60;10.60;;;23.00;23.20;;;;;;2237387;62;20727;-62
2021/03/25 05:20:19;0.00;0.00;0.62;0.00;0.00;0.62;14.13;10.30;;;23.00;23.20;;;;;;2237974;62;20581;-60
2021/03/25 05:23:20;0.00;0.00;0.62;0.00;0.00;0.62;12.83;10.37;;;22.90;23.10;;;;;;2237286;62;20602;-59
2021/03/25 05:26:11;0.00;0.00;0.62;0.00;0.00;0.62;12.90;10.90;;;22.90;23.20;;;;;;2237541;62;20435;-62
2021/03/25 05:29:00;0.00;0.00;0.62;0.00;0.00;0.62;12.87;9.57;;;22.90;23.20;;;;;;2237424;62;20420;-62
2021/03/25 05:31:46;0.00;0.00;0.62;0.00;0.00;0.62;14.53;10.10;;;22.90;23.20;;;;;;2236888;62;20390;-62
2021/03/25 05:34:32;0.00;0.00;0.62;0.00;0.00;0.62;13.13;9.90;;;22.90;23.10;;;;;;2237792;62;20393;-62
2021/03/25 05:37:17;0.00;0.00;0.62;0.00;0.00;0.62;14.37;10.50;;;22.90;23.10;;;;;;2237160;62;20373;-60
2021/03/25 05:40:12;0.00;0.00;0.62;0.00;0.00;0.62;14.83;11.57;;;22.90;23.20;;;;;;2237640;62;20373;-62
2021/03/25 05:43:32;0.00;0.00;0.62;0.00;0.00;0.62;15.47;10.70;;;22.80;23.10;;;;;;2237215;62;20378;-63
2021/03/25 05:46:27;0.00;0.00;0.62;0.00;0.00;0.62;14.90;11.03;;;22.80;23.10;;;;;;2237283;62;20378;-65
2021/03/25 05:49:27;0.00;0.00;0.62;0.00;0.00;0.62;13.93;10.90;;;22.80;23.20;;;;;;2237820;62;20424;-62
2021/03/25 05:52:34;0.00;0.00;0.62;0.00;0.00;0.62;14.47;11.53;;;22.80;23.20;;;;;;2236975;62;20476;-63
2021/03/25 05:55:55;0.00;0.00;0.62;0.00;0.00;0.62;14.57;11.63;;;22.80;23.20;;;;;;2237383;62;20386;-63
2021/03/25 05:58:47;0.00;0.00;0.62;0.00;0.00;0.62;11.57;9.70;;;22.80;23.20;;;;;;2236455;62;20681;-61
2021/03/25 06:01:56;0.00;0.00;0.62;0.00;0.00;0.62;17.40;10.93;;;22.80;23.30;;;;;;2237759;62;20433;-64
2021/03/25 06:04:41;0.00;0.00;0.62;0.00;0.00;0.62;12.87;10.73;;;22.80;23.30;;;;;;2238521;62;20426;-62
2021/03/25 06:07:57;0.00;0.00;0.62;0.00;0.00;0.62;16.03;10.70;;;22.70;23.20;;;;;;2237616;62;20792;-60
2021/03/25 06:10:56;0.00;0.00;0.62;0.00;0.00;0.62;11.63;9.30;;;22.80;23.30;;;;;;2238521;62;20374;-60
2021/03/25 06:14:02;0.00;0.00;0.62;0.00;0.00;0.62;13.40;10.33;;;22.80;23.30;;;;;;2237944;62;20815;-62
2021/03/25 06:17:18;0.00;0.00;0.62;0.00;0.00;0.62;12.00;10.77;;;22.70;23.20;;;;;;2238223;62;20376;-63
2021/03/25 06:20:37;0.00;0.00;0.62;0.00;0.00;0.62;11.40;9.90;;;22.70;23.20;;;;;;2238018;62;20783;-61
2021/03/25 06:23:54;0.00;0.00;0.62;0.00;0.00;0.62;10.87;9.20;;;22.70;23.20;;;;;;2236897;62;20426;-61
2021/03/25 06:26:47;0.00;0.00;0.62;0.00;0.00;0.62;13.30;10.00;;;22.70;23.20;;;;;;2238611;62;20478;-65
2021/03/25 06:29:37;0.00;0.00;0.62;0.00;0.00;0.62;15.30;11.30;;;22.70;23.30;;;;;;2237315;62;20367;-63
2021/03/25 06:32:30;0.00;0.00;0.62;0.00;0.00;0.62;12.17;10.23;;;22.70;23.30;;;;;;2238274;62;20394;-63
2021/03/25 06:35:19;0.00;0.00;0.62;0.00;0.00;0.62;14.00;11.00;;;22.70;23.30;;;;;;2237976;62;20807;-62
2021/03/25 06:38:14;0.00;0.00;0.62;0.00;0.00;0.62;12.10;9.40;;;22.70;23.30;;;;;;2237387;62;20402;-63
2021/03/25 06:41:06;0.00;0.00;0.62;0.00;0.00;0.62;12.73;11.20;;;22.70;23.30;;;;;;2238398;62;20416;-62
2021/03/25 06:43:56;0.00;0.00;0.62;0.00;0.00;0.62;13.77;11.20;;;22.70;23.30;;;;;;2237390;62;20436;-63
2021/03/25 06:46:46;0.00;0.00;0.62;0.00;0.00;0.62;12.20;10.90;;;22.70;23.30;;;;;;2238543;62;20396;-61
2021/03/25 06:49:38;0.00;0.00;0.62;0.00;0.00;0.62;15.33;11.27;;;22.70;23.30;;;;;;2237932;62;20751;-63
2021/03/25 06:52:29;0.00;0.00;0.62;0.00;0.00;0.62;12.43;10.33;;;22.70;23.30;;;;;;2237740;62;20635;-63
2021/03/25 06:55:19;0.00;0.00;0.62;0.00;0.00;0.62;13.97;10.40;;;22.70;23.30;;;;;;2238439;62;20757;-63
2021/03/25 06:58:08;0.00;0.00;0.62;0.00;0.00;0.62;11.70;9.47;;;22.70;23.30;;;;;;2237942;62;20446;-64
2021/03/25 07:01:00;0.00;0.00;0.62;0.00;0.00;0.62;12.00;8.30;;;22.70;23.30;;;;;;2237723;62;20363;-64
2021/03/25 07:03:49;0.00;0.00;0.62;0.00;0.00;0.62;11.47;8.70;;;22.70;23.30;;;;;;2238142;62;20434;-63
2021/03/25 07:06:35;0.00;0.00;0.62;0.00;0.00;0.62;10.90;7.67;;;22.70;23.40;;;;;;2236914;62;20371;-64
2021/03/25 07:09:27;0.00;0.00;0.62;0.00;0.00;0.62;8.17;6.80;;;22.70;23.30;;;;;;2238342;62;20758;-63
2021/03/25 07:12:21;0.00;0.00;0.62;0.00;0.00;0.62;7.17;6.40;;;22.70;23.40;;;;;;2237516;62;20398;-64
2021/03/25 07:15:17;0.00;0.00;0.62;0.00;0.00;0.62;7.50;6.30;;;22.70;23.40;;;;;;2237814;62;20430;-62
2021/03/25 07:17:45;0.00;0.00;0.62;0.00;0.00;0.62;7.53;6.13;;;22.70;23.40;;;;;;2238275;62;20661;-63
2021/03/25 07:20:36;0.00;0.00;0.62;0.00;0.00;0.62;6.20;5.60;;;22.70;23.40;;;;;;2237898;62;20370;-64
2021/03/25 07:23:20;0.00;0.00;0.62;0.00;0.00;0.62;6.90;6.07;;;22.70;23.40;;;;;;2238018;62;20394;-64
2021/03/25 07:26:19;0.00;0.00;0.62;0.00;0.00;0.62;5.60;5.10;;;22.70;23.40;;;;;;2237613;62;20658;-63
2021/03/25 07:29:24;0.00;0.00;0.62;0.00;0.00;0.62;4.67;4.17;;;22.70;23.40;;;;;;2237636;62;20797;-62
2021/03/25 07:32:27;0.00;0.00;0.62;0.00;0.00;0.62;5.70;4.97;;;22.70;23.40;;;;;;2238003;62;20363;-64
2021/03/25 07:35:24;0.00;0.00;0.62;0.00;0.00;0.62;5.60;5.00;;;22.70;23.40;;;;;;2237577;62;20483;-64
2021/03/25 07:38:27;0.00;0.00;0.62;0.00;0.00;0.62;7.17;5.17;;;22.70;23.40;;;;;;2237743;62;20416;-62
2021/03/25 07:41:20;0.00;0.00;0.62;0.00;0.00;0.62;5.10;4.60;;;22.70;23.40;;;;;;2237880;62;20387;-64
2021/03/25 07:44:25;0.00;0.00;0.62;0.00;0.00;0.62;5.10;4.60;;;22.70;23.40;;;;;;2237552;62;20382;-62
2021/03/25 07:47:28;0.00;0.00;0.62;0.00;0.00;0.62;4.80;4.30;;;22.70;23.40;;;;;;2237945;62;20361;-63
2021/03/25 07:50:29;0.00;0.00;0.62;0.00;0.00;0.62;7.10;4.97;;;22.70;23.40;;;;;;2237180;62;20406;-61
2021/03/25 07:53:21;0.00;0.00;0.62;0.00;0.00;0.62;5.07;4.57;;;22.70;23.40;;;;;;2237641;62;20394;-61
2021/03/25 07:56:12;0.00;0.00;0.62;0.00;0.00;0.62;4.70;4.27;;;22.70;23.40;;;;;;2237604;62;20367;-63
2021/03/25 07:58:56;0.00;0.00;0.62;0.00;0.00;0.62;4.53;3.80;;;22.70;23.40;;;;;;2237606;62;20573;-61
2021/03/25 08:01:47;0.00;0.00;0.62;0.00;0.00;0.62;5.43;4.20;;;22.70;23.40;;;;;;2237927;62;20375;-62
2021/03/25 08:04:32;0.00;0.00;0.62;0.00;0.00;0.62;4.40;4.00;;;22.80;23.50;;;;;;2237373;62;20390;-61
2021/03/25 08:07:18;0.00;0.00;0.62;0.00;0.00;0.62;5.27;4.17;;;22.80;23.50;;;;;;2237679;62;20394;-62
2021/03/25 08:10:04;0.00;0.00;0.62;0.00;0.00;0.62;4.30;3.90;;;22.80;23.40;;;;;;2238020;62;20723;-61
2021/03/25 08:12:50;0.00;0.00;0.62;0.00;0.00;0.62;4.40;4.00;;;22.70;23.40;;;;;;2236998;62;20842;-61
2021/03/25 08:15:38;0.00;0.00;0.62;0.00;0.00;0.62;4.47;4.07;;;22.80;23.40;;;;;;2237796;62;20711;-62
2021/03/25 08:19:02;0.00;0.00;0.62;0.00;0.00;0.62;3.60;3.30;;;22.80;23.40;;;;;;2237475;62;20764;-63
2021/03/25 08:22:03;0.00;0.00;0.62;0.00;0.00;0.62;4.30;3.90;;;22.80;23.40;;;;;;2237366;62;20363;-63
2021/03/25 08:25:39;0.00;0.00;0.62;0.00;0.00;0.62;4.40;4.00;;;22.80;23.50;;;;;;2237874;62;20406;-64
2021/03/25 08:28:56;0.00;0.00;0.62;0.00;0.00;0.62;4.47;3.67;;;22.80;23.40;;;;;;2237441;62;20393;-64
2021/03/25 08:31:56;0.00;0.00;0.62;0.00;0.00;0.62;3.77;3.47;;;22.80;23.40;;;;;;2237899;62;20400;-63
2021/03/25 08:35:01;0.00;0.00;0.62;0.00;0.00;0.62;5.33;3.97;;;22.80;23.40;;;;;;2237313;62;20435;-64
2021/03/25 08:38:31;0.00;0.00;0.62;0.00;0.00;0.62;3.80;3.40;;;22.80;23.40;;;;;;2237848;62;20406;-63
2021/03/25 08:41:23;0.00;0.00;0.62;0.00;0.00;0.62;6.20;4.50;;;22.80;23.40;;;;;;2236263;62;20492;-63
2021/03/25 08:44:18;0.00;0.00;0.62;0.00;0.00;0.62;4.37;3.97;;;22.90;23.60;;;;;;2237380;62;20609;-63
2021/03/25 08:47:13;0.00;0.00;0.62;0.00;0.00;0.62;3.83;3.50;;;22.90;23.50;;;;;;2237853;62;20422;-63
2021/03/25 08:50:08;0.00;0.00;0.62;0.00;0.00;0.62;4.30;3.90;;;22.90;23.50;;;;;;2237171;62;20374;-63
2021/03/25 08:52:54;0.00;0.00;0.62;0.00;0.00;0.62;4.10;3.70;;;22.90;23.50;;;;;;2237535;62;20417;-64
2021/03/25 08:55:39;0.00;0.00;0.62;0.00;0.00;0.62;4.33;3.80;;;22.90;23.50;;;;;;2237382;62;20419;-64
2021/03/25 08:58:32;0.00;0.00;0.62;0.00;0.00;0.62;4.20;3.80;;;22.90;23.50;;;;;;2237360;62;20731;-63
2021/03/25 09:01:28;0.00;0.00;0.62;0.00;0.00;0.62;3.53;3.13;;;22.90;23.50;;;;;;2237629;62;20378;-64
2021/03/25 09:04:14;0.00;0.00;0.62;0.00;0.00;0.62;3.73;2.83;;;22.90;23.50;;;;;;2237158;62;20399;-63
2021/03/25 09:07:03;0.00;0.00;0.62;0.00;0.00;0.62;4.17;3.77;;;23.00;23.60;;;;;;2237796;62;20414;-61
2021/03/25 09:09:52;0.00;0.00;0.62;0.00;0.00;0.62;4.03;3.63;;;23.00;23.60;;;;;;2237765;62;20350;-61
2021/03/25 09:12:36;0.00;0.00;0.62;0.00;0.00;0.62;3.67;3.37;;;23.00;23.60;;;;;;2237104;62;20390;-62
2021/03/25 09:15:21;0.00;0.00;0.62;0.00;0.00;0.62;3.40;3.10;;;23.00;23.60;;;;;;2237774;62;20401;-64
2021/03/25 09:18:10;0.00;0.00;0.62;0.00;0.00;0.62;3.80;3.40;;;23.00;23.50;;;;;;2237230;62;20396;-63
2021/03/25 09:20:57;0.00;0.00;0.62;0.00;0.00;0.62;3.50;3.20;;;23.00;23.60;;;;;;2237368;62;20371;-64
2021/03/25 09:24:04;0.00;0.00;0.62;0.00;0.00;0.62;3.70;3.40;;;23.00;23.50;;;;;;2237593;62;20396;-64
2021/03/25 09:26:56;0.00;0.00;0.62;0.00;0.00;0.62;3.27;2.97;;;23.00;23.50;;;;;;2237017;62;20601;-63
2021/03/25 09:30:20;0.00;0.00;0.62;0.00;0.00;0.62;3.60;3.30;;;23.00;23.50;;;;;;2237706;62;20826;-63
2021/03/25 09:33:49;0.00;0.00;0.62;0.00;0.00;0.62;4.13;3.73;;;23.00;23.50;;;;;;2237026;62;20441;-63
2021/03/25 09:36:43;0.00;0.00;0.62;0.00;0.00;0.62;3.93;3.53;;;23.00;23.50;;;;;;2237622;62;20379;-64
2021/03/25 09:39:33;0.00;0.00;0.62;0.00;0.00;0.62;3.90;3.50;;;23.00;23.50;;;;;;2237582;62;20586;-64
2021/03/25 09:42:27;0.00;0.00;0.62;0.00;0.00;0.62;4.23;3.60;;;23.00;23.50;;;;;;2237185;62;20414;-63
2021/03/25 09:45:33;0.00;0.00;0.62;0.00;0.00;0.62;3.83;3.20;;;23.00;23.50;;;;;;2237653;62;20746;-63
2021/03/25 09:48:25;0.00;0.00;0.62;0.00;0.00;0.62;3.57;3.27;;;23.10;23.60;;;;;;2237143;62;20370;-61
2021/03/25 09:51:18;0.00;0.00;0.62;0.00;0.00;0.62;3.67;3.30;;;23.10;23.60;;;;;;2237496;62;20784;-62
2021/03/25 09:54:04;0.00;0.00;0.62;0.00;0.00;0.62;3.03;2.73;;;23.10;23.60;;;;;;2237374;62;20399;-60
2021/03/25 09:57:15;0.00;0.00;0.62;0.00;0.00;0.62;4.00;3.60;;;23.10;23.60;;;;;;2237092;62;20374;-61
2021/03/25 10:00:03;0.00;0.00;0.62;0.00;0.00;0.62;3.30;2.70;;;23.10;23.60;;;;;;2237655;62;20799;-63
2021/03/25 10:02:55;0.00;0.00;0.62;0.00;0.00;0.62;3.90;3.50;;;23.10;24.10;;;;;;2237040;62;20368;-63
2021/03/25 10:05:41;0.00;0.00;0.62;0.00;0.00;0.62;3.63;3.10;;;23.10;23.60;;;;;;2237347;62;20421;-63
2021/03/25 10:08:51;0.00;0.00;0.62;0.00;0.00;0.62;3.70;3.40;;;23.10;23.60;;;;;;2237504;62;20412;-64
2021/03/25 10:11:55;0.00;0.00;0.62;0.00;0.00;0.62;3.60;3.20;;;23.20;23.60;;;;;;2236971;62;20447;-62
2021/03/25 10:14:47;0.00;0.00;0.62;0.00;0.00;0.62;3.90;3.10;;;23.20;23.60;;;;;;2237472;62;20394;-63
2021/03/25 10:17:46;0.00;0.00;0.62;0.00;0.00;0.62;5.23;3.13;;;23.20;23.60;;;;;;2237139;62;20408;-62
2021/03/25 10:20:55;0.00;0.00;0.62;0.00;0.00;0.62;3.20;2.90;;;23.20;23.60;;;;;;2237210;62;20371;-61
2021/03/25 10:23:53;0.00;0.00;0.62;0.00;0.00;0.62;3.27;2.97;;;23.20;23.60;;;;;;2237416;62;20395;-64
2021/03/25 10:26:41;0.00;0.00;0.62;0.00;0.00;0.62;4.10;3.50;;;23.20;23.60;;;;;;2237202;62;20362;-63
2021/03/25 10:29:30;0.00;0.00;0.62;0.00;0.00;0.62;2.97;2.67;;;23.20;23.60;;;;;;2237490;62;20412;-64
2021/03/25 10:32:25;0.00;0.00;0.62;0.00;0.00;0.62;2.60;2.40;;;23.20;23.60;;;;;;2237006;62;20388;-62
2021/03/25 10:35:20;0.00;0.00;0.62;0.00;0.00;0.62;2.80;2.47;;;23.20;23.60;;;;;;2237438;62;20436;-62
2021/03/25 10:38:10;0.00;0.00;0.62;0.00;0.00;0.62;3.03;2.77;;;23.20;23.60;;;;;;2237470;62;20399;-63
2021/03/25 10:40:58;0.00;0.00;0.62;0.00;0.00;0.62;3.27;2.97;;;23.20;23.60;;;;;;2236804;62;20756;-65
2021/03/25 10:43:49;0.00;0.00;0.62;0.00;0.00;0.62;3.93;3.50;;;23.20;23.60;;;;;;2237277;62;20426;-63
2021/03/25 10:46:37;0.00;0.00;0.62;0.00;0.00;0.62;2.63;2.40;;;23.30;23.60;;;;;;2237460;62;20641;-64
2021/03/25 10:49:25;0.00;0.00;0.62;0.00;0.00;0.62;3.57;3.27;;;23.30;23.60;;;;;;2237401;62;20366;-61
2021/03/25 10:52:19;0.00;0.00;0.62;0.00;0.00;0.62;2.97;2.67;;;23.30;23.60;;;;;;2238131;62;20363;-63
2021/03/25 10:55:14;0.00;0.00;0.62;0.00;0.00;0.62;3.10;2.50;;;23.30;23.60;;;;;;2237747;62;20435;-65
2021/03/25 10:58:02;0.00;0.00;0.62;0.00;0.00;0.62;3.30;3.00;;;23.30;23.70;;;;;;2238104;62;20716;-61
2021/03/25 11:00:47;0.00;0.00;0.62;0.00;0.00;0.62;2.93;2.73;;;23.30;23.60;;;;;;2238116;62;20392;-63
2021/03/25 11:03:37;0.00;0.00;0.62;0.00;0.00;0.62;3.10;2.80;;;23.30;23.60;;;;;;2237534;62;20446;-63
2021/03/25 11:06:28;0.00;0.00;0.62;0.00;0.00;0.62;2.90;2.60;;;23.30;23.70;;;;;;2238332;62;20359;-64
2021/03/25 11:09:21;0.00;0.00;0.62;0.00;0.00;0.62;3.00;2.70;;;23.30;23.60;;;;;;2237575;62;20775;-62
2021/03/25 11:12:21;0.00;0.00;0.62;0.00;0.00;0.62;3.00;2.70;;;23.40;23.70;;;;;;2237850;62;20399;-63
2021/03/25 11:15:19;0.00;0.00;0.62;0.00;0.00;0.62;2.97;2.47;;;23.40;23.70;;;;;;2238127;62;20386;-62
2021/03/25 11:18:18;0.00;0.00;0.62;0.00;0.00;0.62;3.00;2.70;;;23.40;23.70;;;;;;2237237;62;20739;-64
2021/03/25 11:21:06;0.00;0.00;0.62;0.00;0.00;0.62;3.57;2.60;;;23.40;23.70;;;;;;2238041;62;20370;-62